sensor_id;sensor_type;location;lat;lon;timestamp;P1;durP1;ratioP1;P2;durP2;ratioP2
11962;SDS011;62678;52.130;5.584;2022-08-16T00:01:00;20.65;;;17.23;;
11962;SDS011;62678;52.130;5.584;2022-08-16T00:03:27;21.77;;;17.73;;
11962;SDS011;62678;52.130;5.584;2022-08-16T00:05:55;19.63;;;17.17;;
11962;SDS011;62678;52.130;5.584;2022-08-16T00:08:22;23.65;;;17.85;;
11962;SDS011;62678;52.130;5.584;2022-08-16T00:10:48;26.08;;;17.60;;
11962;SDS011;62678;52.130;5.584;2022-08-16T00:13:16;22.48;;;18.10;;
11962;SDS011;62678;52.130;5.584;2022-08-16T00:15:44;21.40;;;17.45;;
11962;SDS011;62678;52.130;5.584;2022-08-16T00:18:13;21.83;;;18.75;;
11962;SDS011;62678;52.130;5.584;2022-08-16T00:20:41;22.25;;;17.33;;
11962;SDS011;62678;52.130;5.584;2022-08-16T00:23:11;21.73;;;18.48;;
11962;SDS011;62678;52.130;5.584;2022-08-16T00:25:39;22.27;;;18.60;;
11962;SDS011;62678;52.130;5.584;2022-08-16T00:28:06;25.17;;;19.75;;
11962;SDS011;62678;52.130;5.584;2022-08-16T00:30:33;22.10;;;17.88;;
11962;SDS011;62678;52.130;5.584;2022-08-16T00:33:00;26.20;;;19.65;;
11962;SDS011;62678;52.130;5.584;2022-08-16T00:35:28;21.02;;;18.35;;
11962;SDS011;62678;52.130;5.584;2022-08-16T00:38:00;20.70;;;18.60;;
11962;SDS011;62678;52.130;5.584;2022-08-16T00:40:34;20.98;;;18.88;;
11962;SDS011;62678;52.130;5.584;2022-08-16T00:43:04;23.67;;;19.55;;
11962;SDS011;62678;52.130;5.584;2022-08-16T00:45:37;23.55;;;19.35;;
11962;SDS011;62678;52.130;5.584;2022-08-16T00:48:07;21.90;;;19.55;;
11962;SDS011;62678;52.130;5.584;2022-08-16T00:50:36;26.48;;;20.58;;
11962;SDS011;62678;52.130;5.584;2022-08-16T00:53:05;25.23;;;20.63;;
11962;SDS011;62678;52.130;5.584;2022-08-16T00:55:35;23.10;;;20.73;;
11962;SDS011;62678;52.130;5.584;2022-08-16T00:58:04;22.60;;;20.17;;
11962;SDS011;62678;52.130;5.584;2022-08-16T01:00:42;22.80;;;20.40;;
11962;SDS011;62678;52.130;5.584;2022-08-16T01:03:34;22.42;;;20.05;;
11962;SDS011;62678;52.130;5.584;2022-08-16T01:06:02;22.50;;;20.08;;
11962;SDS011;62678;52.130;5.584;2022-08-16T01:08:30;25.75;;;20.35;;
11962;SDS011;62678;52.130;5.584;2022-08-16T01:11:02;24.80;;;21.23;;
11962;SDS011;62678;52.130;5.584;2022-08-16T01:13:31;21.90;;;19.58;;
11962;SDS011;62678;52.130;5.584;2022-08-16T01:16:01;22.77;;;20.20;;
11962;SDS011;62678;52.130;5.584;2022-08-16T01:18:30;23.75;;;19.58;;
11962;SDS011;62678;52.130;5.584;2022-08-16T01:35:22;25.17;;;21.23;;
11962;SDS011;62678;52.130;5.584;2022-08-16T01:37:53;24.40;;;21.67;;
11962;SDS011;62678;52.130;5.584;2022-08-16T01:40:23;22.45;;;19.60;;
11962;SDS011;62678;52.130;5.584;2022-08-16T01:42:52;26.38;;;21.13;;
11962;SDS011;62678;52.130;5.584;2022-08-16T01:45:20;24.55;;;21.90;;
11962;SDS011;62678;52.130;5.584;2022-08-16T01:47:48;26.23;;;20.88;;
11962;SDS011;62678;52.130;5.584;2022-08-16T01:50:16;23.75;;;21.05;;
11962;SDS011;62678;52.130;5.584;2022-08-16T01:52:46;25.27;;;21.67;;
11962;SDS011;62678;52.130;5.584;2022-08-16T01:55:13;27.42;;;22.35;;
11962;SDS011;62678;52.130;5.584;2022-08-16T01:57:42;26.23;;;22.63;;
11962;SDS011;62678;52.130;5.584;2022-08-16T02:00:09;27.95;;;22.55;;
11962;SDS011;62678;52.130;5.584;2022-08-16T02:02:37;28.60;;;22.73;;
11962;SDS011;62678;52.130;5.584;2022-08-16T02:05:04;25.30;;;22.60;;
11962;SDS011;62678;52.130;5.584;2022-08-16T02:07:31;26.83;;;23.42;;
11962;SDS011;62678;52.130;5.584;2022-08-16T02:09:59;26.65;;;22.63;;
11962;SDS011;62678;52.130;5.584;2022-08-16T02:12:26;25.70;;;22.73;;
11962;SDS011;62678;52.130;5.584;2022-08-16T02:14:54;26.77;;;23.17;;
11962;SDS011;62678;52.130;5.584;2022-08-16T02:17:22;29.52;;;24.30;;
11962;SDS011;62678;52.130;5.584;2022-08-16T02:19:49;25.70;;;22.77;;
11962;SDS011;62678;52.130;5.584;2022-08-16T02:22:19;28.73;;;23.40;;
11962;SDS011;62678;52.130;5.584;2022-08-16T02:24:47;27.40;;;22.23;;
11962;SDS011;62678;52.130;5.584;2022-08-16T02:27:16;29.67;;;23.52;;
11962;SDS011;62678;52.130;5.584;2022-08-16T02:29:43;24.20;;;21.70;;
11962;SDS011;62678;52.130;5.584;2022-08-16T02:32:12;29.75;;;22.95;;
11962;SDS011;62678;52.130;5.584;2022-08-16T02:34:41;27.88;;;23.45;;
11962;SDS011;62678;52.130;5.584;2022-08-16T02:37:08;24.92;;;22.35;;
11962;SDS011;62678;52.130;5.584;2022-08-16T02:39:35;26.85;;;23.95;;
11962;SDS011;62678;52.130;5.584;2022-08-16T02:42:03;27.98;;;24.45;;
11962;SDS011;62678;52.130;5.584;2022-08-16T02:44:31;29.02;;;24.45;;
11962;SDS011;62678;52.130;5.584;2022-08-16T02:46:58;28.88;;;25.52;;
11962;SDS011;62678;52.130;5.584;2022-08-16T02:49:25;27.15;;;24.25;;
11962;SDS011;62678;52.130;5.584;2022-08-16T02:52:02;27.63;;;24.65;;
11962;SDS011;62678;52.130;5.584;2022-08-16T02:54:29;29.75;;;25.13;;
11962;SDS011;62678;52.130;5.584;2022-08-16T02:58:28;27.65;;;24.75;;
11962;SDS011;62678;52.130;5.584;2022-08-16T03:03:16;28.08;;;25.08;;
11962;SDS011;62678;52.130;5.584;2022-08-16T03:06:15;31.63;;;24.73;;
11962;SDS011;62678;52.130;5.584;2022-08-16T03:08:44;27.90;;;24.92;;
11962;SDS011;62678;52.130;5.584;2022-08-16T03:11:12;29.17;;;25.40;;
11962;SDS011;62678;52.130;5.584;2022-08-16T03:13:40;30.15;;;26.02;;
11962;SDS011;62678;52.130;5.584;2022-08-16T03:16:09;30.50;;;26.25;;
11962;SDS011;62678;52.130;5.584;2022-08-16T03:18:36;29.50;;;26.15;;
11962;SDS011;62678;52.130;5.584;2022-08-16T03:24:25;28.23;;;25.08;;
11962;SDS011;62678;52.130;5.584;2022-08-16T03:30:03;35.17;;;27.40;;
11962;SDS011;62678;52.130;5.584;2022-08-16T03:32:44;33.38;;;29.10;;
11962;SDS011;62678;52.130;5.584;2022-08-16T03:35:11;36.10;;;29.25;;
11962;SDS011;62678;52.130;5.584;2022-08-16T03:37:38;36.25;;;29.50;;
11962;SDS011;62678;52.130;5.584;2022-08-16T03:40:07;38.63;;;28.63;;
11962;SDS011;62678;52.130;5.584;2022-08-16T03:42:35;35.78;;;30.55;;
11962;SDS011;62678;52.130;5.584;2022-08-16T03:45:02;38.95;;;30.13;;
11962;SDS011;62678;52.130;5.584;2022-08-16T03:47:29;33.55;;;29.38;;
11962;SDS011;62678;52.130;5.584;2022-08-16T03:49:58;36.17;;;29.67;;
11962;SDS011;62678;52.130;5.584;2022-08-16T03:52:25;33.67;;;29.63;;
11962;SDS011;62678;52.130;5.584;2022-08-16T03:54:52;38.70;;;31.90;;
11962;SDS011;62678;52.130;5.584;2022-08-16T03:57:18;37.25;;;31.05;;
11962;SDS011;62678;52.130;5.584;2022-08-16T03:59:45;37.58;;;31.58;;
11962;SDS011;62678;52.130;5.584;2022-08-16T04:02:12;35.38;;;30.17;;
11962;SDS011;62678;52.130;5.584;2022-08-16T04:04:40;37.83;;;30.63;;
11962;SDS011;62678;52.130;5.584;2022-08-16T04:07:08;34.97;;;30.25;;
11962;SDS011;62678;52.130;5.584;2022-08-16T04:09:35;37.47;;;31.38;;
11962;SDS011;62678;52.130;5.584;2022-08-16T04:12:02;36.83;;;31.23;;
11962;SDS011;62678;52.130;5.584;2022-08-16T04:14:30;40.53;;;32.65;;
11962;SDS011;62678;52.130;5.584;2022-08-16T04:16:56;43.45;;;32.45;;
11962;SDS011;62678;52.130;5.584;2022-08-16T04:19:24;39.72;;;31.88;;
11962;SDS011;62678;52.130;5.584;2022-08-16T04:21:51;46.83;;;31.95;;
11962;SDS011;62678;52.130;5.584;2022-08-16T04:24:20;41.40;;;30.98;;
11962;SDS011;62678;52.130;5.584;2022-08-16T04:26:47;44.53;;;32.50;;
11962;SDS011;62678;52.130;5.584;2022-08-16T04:29:14;44.13;;;31.63;;
11962;SDS011;62678;52.130;5.584;2022-08-16T04:31:41;43.35;;;30.80;;
11962;SDS011;62678;52.130;5.584;2022-08-16T04:34:08;43.00;;;31.83;;
11962;SDS011;62678;52.130;5.584;2022-08-16T04:36:35;44.53;;;32.13;;
11962;SDS011;62678;52.130;5.584;2022-08-16T04:39:02;40.50;;;31.10;;
11962;SDS011;62678;52.130;5.584;2022-08-16T04:41:30;45.47;;;31.67;;
11962;SDS011;62678;52.130;5.584;2022-08-16T04:43:58;38.90;;;31.45;;
11962;SDS011;62678;52.130;5.584;2022-08-16T04:46:24;53.08;;;31.33;;
11962;SDS011;62678;52.130;5.584;2022-08-16T04:48:51;38.15;;;32.05;;
11962;SDS011;62678;52.130;5.584;2022-08-16T04:51:18;37.20;;;31.45;;
11962;SDS011;62678;52.130;5.584;2022-08-16T04:53:45;35.20;;;30.15;;
11962;SDS011;62678;52.130;5.584;2022-08-16T04:56:13;34.35;;;29.20;;
11962;SDS011;62678;52.130;5.584;2022-08-16T04:58:41;35.15;;;29.60;;
11962;SDS011;62678;52.130;5.584;2022-08-16T05:01:07;33.88;;;29.10;;
11962;SDS011;62678;52.130;5.584;2022-08-16T05:03:34;34.03;;;29.02;;
11962;SDS011;62678;52.130;5.584;2022-08-16T05:06:01;38.00;;;29.77;;
11962;SDS011;62678;52.130;5.584;2022-08-16T05:08:28;35.38;;;29.45;;
11962;SDS011;62678;52.130;5.584;2022-08-16T05:10:55;33.88;;;29.52;;
11962;SDS011;62678;52.130;5.584;2022-08-16T05:13:23;37.05;;;29.52;;
11962;SDS011;62678;52.130;5.584;2022-08-16T05:15:51;36.90;;;31.10;;
11962;SDS011;62678;52.130;5.584;2022-08-16T05:18:18;36.20;;;31.77;;
11962;SDS011;62678;52.130;5.584;2022-08-16T05:20:45;37.78;;;31.15;;
11962;SDS011;62678;52.130;5.584;2022-08-16T05:23:12;39.53;;;30.70;;
11962;SDS011;62678;52.130;5.584;2022-08-16T05:25:41;37.85;;;29.73;;
11962;SDS011;62678;52.130;5.584;2022-08-16T05:28:07;35.05;;;29.88;;
11962;SDS011;62678;52.130;5.584;2022-08-16T05:30:35;31.85;;;28.23;;
11962;SDS011;62678;52.130;5.584;2022-08-16T05:33:04;38.22;;;28.17;;
11962;SDS011;62678;52.130;5.584;2022-08-16T05:39:06;35.83;;;28.52;;
11962;SDS011;62678;52.130;5.584;2022-08-16T05:41:56;38.10;;;28.17;;
11962;SDS011;62678;52.130;5.584;2022-08-16T05:44:22;38.42;;;29.05;;
11962;SDS011;62678;52.130;5.584;2022-08-16T05:46:50;36.38;;;27.70;;
11962;SDS011;62678;52.130;5.584;2022-08-16T05:49:19;32.88;;;28.33;;
11962;SDS011;62678;52.130;5.584;2022-08-16T05:51:46;35.53;;;28.48;;
11962;SDS011;62678;52.130;5.584;2022-08-16T05:54:14;39.35;;;31.85;;
11962;SDS011;62678;52.130;5.584;2022-08-16T05:56:41;44.58;;;34.28;;
11962;SDS011;62678;52.130;5.584;2022-08-16T05:59:10;47.15;;;37.95;;
11962;SDS011;62678;52.130;5.584;2022-08-16T06:01:37;45.55;;;34.30;;
11962;SDS011;62678;52.130;5.584;2022-08-16T06:04:05;42.55;;;33.85;;
11962;SDS011;62678;52.130;5.584;2022-08-16T06:06:34;39.20;;;31.10;;
11962;SDS011;62678;52.130;5.584;2022-08-16T06:09:01;37.45;;;29.70;;
11962;SDS011;62678;52.130;5.584;2022-08-16T06:11:28;30.42;;;25.45;;
11962;SDS011;62678;52.130;5.584;2022-08-16T06:13:55;32.13;;;25.25;;
11962;SDS011;62678;52.130;5.584;2022-08-16T06:16:22;29.90;;;25.00;;
11962;SDS011;62678;52.130;5.584;2022-08-16T06:18:48;31.50;;;25.88;;
11962;SDS011;62678;52.130;5.584;2022-08-16T06:21:15;26.55;;;23.58;;
11962;SDS011;62678;52.130;5.584;2022-08-16T06:23:43;29.95;;;25.42;;
11962;SDS011;62678;52.130;5.584;2022-08-16T06:26:23;29.58;;;23.17;;
11962;SDS011;62678;52.130;5.584;2022-08-16T06:29:05;29.50;;;23.73;;
11962;SDS011;62678;52.130;5.584;2022-08-16T06:31:40;30.95;;;26.13;;
11962;SDS011;62678;52.130;5.584;2022-08-16T06:35:10;25.38;;;22.05;;
11962;SDS011;62678;52.130;5.584;2022-08-16T06:40:41;34.40;;;27.48;;
11962;SDS011;62678;52.130;5.584;2022-08-16T06:43:08;30.30;;;23.80;;
11962;SDS011;62678;52.130;5.584;2022-08-16T06:45:35;31.52;;;27.48;;
11962;SDS011;62678;52.130;5.584;2022-08-16T06:48:02;28.23;;;25.00;;
11962;SDS011;62678;52.130;5.584;2022-08-16T06:50:29;28.80;;;25.38;;
11962;SDS011;62678;52.130;5.584;2022-08-16T06:52:56;35.88;;;27.25;;
11962;SDS011;62678;52.130;5.584;2022-08-16T06:55:25;29.50;;;24.70;;
11962;SDS011;62678;52.130;5.584;2022-08-16T07:00:41;31.67;;;28.23;;
11962;SDS011;62678;52.130;5.584;2022-08-16T07:07:55;30.33;;;26.30;;
11962;SDS011;62678;52.130;5.584;2022-08-16T07:11:13;34.88;;;29.58;;
11962;SDS011;62678;52.130;5.584;2022-08-16T07:13:43;26.65;;;23.23;;
11962;SDS011;62678;52.130;5.584;2022-08-16T07:16:11;35.83;;;27.50;;
11962;SDS011;62678;52.130;5.584;2022-08-16T07:18:40;43.05;;;31.83;;
11962;SDS011;62678;52.130;5.584;2022-08-16T07:21:08;33.67;;;26.30;;
11962;SDS011;62678;52.130;5.584;2022-08-16T07:23:37;32.63;;;26.60;;
11962;SDS011;62678;52.130;5.584;2022-08-16T07:26:04;30.17;;;24.27;;
11962;SDS011;62678;52.130;5.584;2022-08-16T07:29:09;28.75;;;25.25;;
11962;SDS011;62678;52.130;5.584;2022-08-16T07:32:07;33.90;;;28.13;;
11962;SDS011;62678;52.130;5.584;2022-08-16T07:34:47;32.42;;;28.02;;
11962;SDS011;62678;52.130;5.584;2022-08-16T07:37:14;30.05;;;25.30;;
11962;SDS011;62678;52.130;5.584;2022-08-16T07:39:41;34.03;;;27.52;;
11962;SDS011;62678;52.130;5.584;2022-08-16T07:42:08;27.13;;;22.60;;
11962;SDS011;62678;52.130;5.584;2022-08-16T07:44:36;28.35;;;23.33;;
11962;SDS011;62678;52.130;5.584;2022-08-16T07:47:03;23.00;;;18.05;;
11962;SDS011;62678;52.130;5.584;2022-08-16T07:49:30;30.15;;;23.73;;
11962;SDS011;62678;52.130;5.584;2022-08-16T07:51:56;29.35;;;21.85;;
11962;SDS011;62678;52.130;5.584;2022-08-16T07:54:23;28.90;;;22.48;;
11962;SDS011;62678;52.130;5.584;2022-08-16T07:56:50;28.55;;;22.95;;
11962;SDS011;62678;52.130;5.584;2022-08-16T07:59:17;25.13;;;19.83;;
11962;SDS011;62678;52.130;5.584;2022-08-16T08:01:46;25.88;;;19.38;;
11962;SDS011;62678;52.130;5.584;2022-08-16T08:04:13;24.10;;;18.70;;
11962;SDS011;62678;52.130;5.584;2022-08-16T08:06:40;26.30;;;19.70;;
11962;SDS011;62678;52.130;5.584;2022-08-16T08:09:07;21.45;;;17.17;;
11962;SDS011;62678;52.130;5.584;2022-08-16T08:11:33;23.25;;;18.42;;
11962;SDS011;62678;52.130;5.584;2022-08-16T08:14:01;21.05;;;17.23;;
11962;SDS011;62678;52.130;5.584;2022-08-16T08:16:28;22.63;;;17.38;;
11962;SDS011;62678;52.130;5.584;2022-08-16T08:18:56;18.88;;;16.05;;
11962;SDS011;62678;52.130;5.584;2022-08-16T08:21:24;19.25;;;15.18;;
11962;SDS011;62678;52.130;5.584;2022-08-16T08:23:51;18.38;;;15.68;;
11962;SDS011;62678;52.130;5.584;2022-08-16T08:26:18;18.40;;;16.15;;
11962;SDS011;62678;52.130;5.584;2022-08-16T08:28:46;20.70;;;15.90;;
11962;SDS011;62678;52.130;5.584;2022-08-16T08:31:13;22.13;;;16.75;;
11962;SDS011;62678;52.130;5.584;2022-08-16T08:33:39;20.60;;;16.55;;
11962;SDS011;62678;52.130;5.584;2022-08-16T08:36:08;19.20;;;15.73;;
11962;SDS011;62678;52.130;5.584;2022-08-16T08:38:39;20.00;;;15.15;;
11962;SDS011;62678;52.130;5.584;2022-08-16T08:41:06;20.50;;;15.82;;
11962;SDS011;62678;52.130;5.584;2022-08-16T08:43:32;16.23;;;14.23;;
11962;SDS011;62678;52.130;5.584;2022-08-16T08:46:00;22.52;;;16.40;;
11962;SDS011;62678;52.130;5.584;2022-08-16T08:48:27;18.08;;;14.40;;
11962;SDS011;62678;52.130;5.584;2022-08-16T08:50:55;23.45;;;17.80;;
11962;SDS011;62678;52.130;5.584;2022-08-16T08:53:23;20.15;;;15.88;;
11962;SDS011;62678;52.130;5.584;2022-08-16T08:55:50;21.60;;;19.08;;
11962;SDS011;62678;52.130;5.584;2022-08-16T08:58:17;22.95;;;18.17;;
11962;SDS011;62678;52.130;5.584;2022-08-16T09:00:44;23.20;;;19.17;;
11962;SDS011;62678;52.130;5.584;2022-08-16T09:03:11;19.67;;;15.40;;
11962;SDS011;62678;52.130;5.584;2022-08-16T09:05:39;16.13;;;14.43;;
11962;SDS011;62678;52.130;5.584;2022-08-16T09:08:06;21.05;;;18.85;;
11962;SDS011;62678;52.130;5.584;2022-08-16T09:10:34;29.05;;;22.63;;
11962;SDS011;62678;52.130;5.584;2022-08-16T09:13:01;28.13;;;21.15;;
11962;SDS011;62678;52.130;5.584;2022-08-16T09:15:29;25.10;;;20.75;;
11962;SDS011;62678;52.130;5.584;2022-08-16T09:17:56;19.98;;;16.77;;
11962;SDS011;62678;52.130;5.584;2022-08-16T09:20:23;23.65;;;19.75;;
11962;SDS011;62678;52.130;5.584;2022-08-16T09:22:52;23.75;;;19.55;;
11962;SDS011;62678;52.130;5.584;2022-08-16T09:25:20;23.02;;;18.58;;
11962;SDS011;62678;52.130;5.584;2022-08-16T09:27:48;27.45;;;21.50;;
11962;SDS011;62678;52.130;5.584;2022-08-16T09:30:15;24.20;;;21.10;;
11962;SDS011;62678;52.130;5.584;2022-08-16T09:32:42;19.60;;;17.52;;
11962;SDS011;62678;52.130;5.584;2022-08-16T09:35:10;23.88;;;19.15;;
11962;SDS011;62678;52.130;5.584;2022-08-16T09:37:37;18.50;;;14.95;;
11962;SDS011;62678;52.130;5.584;2022-08-16T09:40:05;27.05;;;21.38;;
11962;SDS011;62678;52.130;5.584;2022-08-16T09:42:35;23.52;;;17.60;;
11962;SDS011;62678;52.130;5.584;2022-08-16T09:45:04;22.40;;;19.83;;
11962;SDS011;62678;52.130;5.584;2022-08-16T09:47:33;21.73;;;18.80;;
11962;SDS011;62678;52.130;5.584;2022-08-16T09:50:05;25.48;;;22.23;;
11962;SDS011;62678;52.130;5.584;2022-08-16T09:52:35;20.05;;;16.58;;
11962;SDS011;62678;52.130;5.584;2022-08-16T09:55:03;24.08;;;19.05;;
11962;SDS011;62678;52.130;5.584;2022-08-16T09:57:31;24.75;;;16.83;;
11962;SDS011;62678;52.130;5.584;2022-08-16T09:59:58;24.85;;;20.90;;
11962;SDS011;62678;52.130;5.584;2022-08-16T10:02:28;21.52;;;17.38;;
11962;SDS011;62678;52.130;5.584;2022-08-16T10:04:55;25.67;;;21.45;;
11962;SDS011;62678;52.130;5.584;2022-08-16T10:07:22;23.98;;;21.00;;
11962;SDS011;62678;52.130;5.584;2022-08-16T10:09:49;23.95;;;20.48;;
11962;SDS011;62678;52.130;5.584;2022-08-16T10:12:16;23.45;;;19.88;;
11962;SDS011;62678;52.130;5.584;2022-08-16T10:15:00;25.85;;;19.75;;
11962;SDS011;62678;52.130;5.584;2022-08-16T10:17:29;20.88;;;17.88;;
11962;SDS011;62678;52.130;5.584;2022-08-16T10:19:56;21.67;;;16.85;;
11962;SDS011;62678;52.130;5.584;2022-08-16T10:22:22;20.65;;;15.80;;
11962;SDS011;62678;52.130;5.584;2022-08-16T10:24:49;24.23;;;19.50;;
11962;SDS011;62678;52.130;5.584;2022-08-16T10:27:16;22.52;;;16.80;;
11962;SDS011;62678;52.130;5.584;2022-08-16T10:29:44;21.83;;;18.63;;
11962;SDS011;62678;52.130;5.584;2022-08-16T10:32:11;23.92;;;18.20;;
11962;SDS011;62678;52.130;5.584;2022-08-16T10:34:39;22.52;;;17.52;;
11962;SDS011;62678;52.130;5.584;2022-08-16T10:37:06;19.45;;;17.27;;
11962;SDS011;62678;52.130;5.584;2022-08-16T10:39:33;22.80;;;17.90;;
11962;SDS011;62678;52.130;5.584;2022-08-16T10:42:00;22.67;;;15.88;;
11962;SDS011;62678;52.130;5.584;2022-08-16T10:44:26;22.20;;;17.25;;
11962;SDS011;62678;52.130;5.584;2022-08-16T10:46:53;19.63;;;16.30;;
11962;SDS011;62678;52.130;5.584;2022-08-16T10:49:20;18.60;;;15.43;;
11962;SDS011;62678;52.130;5.584;2022-08-16T10:51:48;19.50;;;15.63;;
11962;SDS011;62678;52.130;5.584;2022-08-16T10:54:15;16.35;;;14.45;;
11962;SDS011;62678;52.130;5.584;2022-08-16T10:56:42;18.33;;;13.40;;
11962;SDS011;62678;52.130;5.584;2022-08-16T10:59:08;17.63;;;12.32;;
11962;SDS011;62678;52.130;5.584;2022-08-16T11:01:35;16.00;;;13.05;;
11962;SDS011;62678;52.130;5.584;2022-08-16T11:04:02;17.85;;;14.60;;
11962;SDS011;62678;52.130;5.584;2022-08-16T11:06:31;14.55;;;12.65;;
11962;SDS011;62678;52.130;5.584;2022-08-16T11:08:59;16.27;;;11.73;;
11962;SDS011;62678;52.130;5.584;2022-08-16T11:11:26;15.27;;;11.50;;
11962;SDS011;62678;52.130;5.584;2022-08-16T11:13:52;17.35;;;13.35;;
11962;SDS011;62678;52.130;5.584;2022-08-16T11:16:19;11.73;;;10.57;;
11962;SDS011;62678;52.130;5.584;2022-08-16T11:18:46;15.45;;;11.88;;
11962;SDS011;62678;52.130;5.584;2022-08-16T11:21:14;20.60;;;13.02;;
11962;SDS011;62678;52.130;5.584;2022-08-16T11:23:41;23.08;;;13.55;;
11962;SDS011;62678;52.130;5.584;2022-08-16T11:26:09;17.00;;;11.85;;
11962;SDS011;62678;52.130;5.584;2022-08-16T11:28:36;15.15;;;11.90;;
11962;SDS011;62678;52.130;5.584;2022-08-16T11:31:04;18.60;;;12.52;;
11962;SDS011;62678;52.130;5.584;2022-08-16T11:33:31;21.05;;;13.02;;
11962;SDS011;62678;52.130;5.584;2022-08-16T11:35:57;15.90;;;12.73;;
11962;SDS011;62678;52.130;5.584;2022-08-16T11:38:24;20.20;;;13.25;;
11962;SDS011;62678;52.130;5.584;2022-08-16T11:40:52;19.05;;;12.57;;
11962;SDS011;62678;52.130;5.584;2022-08-16T11:43:22;20.42;;;13.38;;
11962;SDS011;62678;52.130;5.584;2022-08-16T11:45:50;17.27;;;13.45;;
11962;SDS011;62678;52.130;5.584;2022-08-16T11:48:17;16.85;;;12.85;;
11962;SDS011;62678;52.130;5.584;2022-08-16T11:50:45;16.08;;;12.93;;
11962;SDS011;62678;52.130;5.584;2022-08-16T11:53:12;16.80;;;14.35;;
11962;SDS011;62678;52.130;5.584;2022-08-16T11:55:39;19.27;;;13.80;;
11962;SDS011;62678;52.130;5.584;2022-08-16T11:58:07;17.40;;;13.55;;
11962;SDS011;62678;52.130;5.584;2022-08-16T12:00:36;19.67;;;16.33;;
11962;SDS011;62678;52.130;5.584;2022-08-16T12:03:04;22.50;;;16.20;;
11962;SDS011;62678;52.130;5.584;2022-08-16T12:05:32;17.90;;;13.90;;
11962;SDS011;62678;52.130;5.584;2022-08-16T12:08:01;13.82;;;11.23;;
11962;SDS011;62678;52.130;5.584;2022-08-16T12:10:30;13.48;;;11.27;;
11962;SDS011;62678;52.130;5.584;2022-08-16T12:12:59;18.90;;;14.07;;
11962;SDS011;62678;52.130;5.584;2022-08-16T12:15:27;15.48;;;12.25;;
11962;SDS011;62678;52.130;5.584;2022-08-16T12:17:56;16.95;;;12.00;;
11962;SDS011;62678;52.130;5.584;2022-08-16T12:20:24;18.20;;;13.73;;
11962;SDS011;62678;52.130;5.584;2022-08-16T12:22:53;14.07;;;9.60;;
11962;SDS011;62678;52.130;5.584;2022-08-16T12:25:21;16.08;;;11.48;;
11962;SDS011;62678;52.130;5.584;2022-08-16T12:28:03;17.30;;;13.52;;
11962;SDS011;62678;52.130;5.584;2022-08-16T12:30:34;18.05;;;13.35;;
11962;SDS011;62678;52.130;5.584;2022-08-16T12:33:04;16.30;;;12.93;;
11962;SDS011;62678;52.130;5.584;2022-08-16T12:35:33;13.85;;;10.90;;
11962;SDS011;62678;52.130;5.584;2022-08-16T12:38:01;12.95;;;9.85;;
11962;SDS011;62678;52.130;5.584;2022-08-16T12:40:31;11.25;;;9.45;;
11962;SDS011;62678;52.130;5.584;2022-08-16T12:42:59;14.35;;;10.38;;
11962;SDS011;62678;52.130;5.584;2022-08-16T12:45:28;11.07;;;9.57;;
11962;SDS011;62678;52.130;5.584;2022-08-16T12:47:57;12.40;;;10.20;;
11962;SDS011;62678;52.130;5.584;2022-08-16T12:50:44;14.30;;;12.13;;
11962;SDS011;62678;52.130;5.584;2022-08-16T12:53:12;13.93;;;12.40;;
11962;SDS011;62678;52.130;5.584;2022-08-16T12:55:39;13.88;;;11.75;;
11962;SDS011;62678;52.130;5.584;2022-08-16T12:58:06;18.42;;;11.57;;
11962;SDS011;62678;52.130;5.584;2022-08-16T13:00:33;12.50;;;8.27;;
11962;SDS011;62678;52.130;5.584;2022-08-16T13:03:01;9.40;;;8.13;;
11962;SDS011;62678;52.130;5.584;2022-08-16T13:05:29;12.52;;;9.63;;
11962;SDS011;62678;52.130;5.584;2022-08-16T13:08:07;14.40;;;11.30;;
11962;SDS011;62678;52.130;5.584;2022-08-16T13:10:35;14.80;;;9.02;;
11962;SDS011;62678;52.130;5.584;2022-08-16T13:13:03;20.08;;;10.10;;
11962;SDS011;62678;52.130;5.584;2022-08-16T13:15:30;12.63;;;8.73;;
11962;SDS011;62678;52.130;5.584;2022-08-16T13:17:57;14.60;;;11.30;;
11962;SDS011;62678;52.130;5.584;2022-08-16T13:20:25;10.70;;;9.57;;
11962;SDS011;62678;52.130;5.584;2022-08-16T13:22:56;17.08;;;12.38;;
11962;SDS011;62678;52.130;5.584;2022-08-16T13:25:27;13.77;;;11.20;;
11962;SDS011;62678;52.130;5.584;2022-08-16T13:27:56;16.25;;;12.63;;
11962;SDS011;62678;52.130;5.584;2022-08-16T13:30:23;16.35;;;12.23;;
11962;SDS011;62678;52.130;5.584;2022-08-16T13:33:02;19.48;;;14.10;;
11962;SDS011;62678;52.130;5.584;2022-08-16T13:35:36;16.92;;;14.40;;
11962;SDS011;62678;52.130;5.584;2022-08-16T13:38:09;22.70;;;16.65;;
11962;SDS011;62678;52.130;5.584;2022-08-16T13:40:40;19.60;;;14.98;;
11962;SDS011;62678;52.130;5.584;2022-08-16T13:43:17;18.92;;;15.80;;
11962;SDS011;62678;52.130;5.584;2022-08-16T13:45:47;20.38;;;17.42;;
11962;SDS011;62678;52.130;5.584;2022-08-16T13:48:15;19.65;;;17.55;;
11962;SDS011;62678;52.130;5.584;2022-08-16T13:50:42;18.73;;;15.45;;
11962;SDS011;62678;52.130;5.584;2022-08-16T13:53:09;15.98;;;14.40;;
11962;SDS011;62678;52.130;5.584;2022-08-16T13:55:36;21.98;;;17.48;;
11962;SDS011;62678;52.130;5.584;2022-08-16T13:58:04;20.35;;;16.50;;
11962;SDS011;62678;52.130;5.584;2022-08-16T14:00:33;20.20;;;16.63;;
11962;SDS011;62678;52.130;5.584;2022-08-16T14:03:06;21.75;;;18.52;;
11962;SDS011;62678;52.130;5.584;2022-08-16T14:05:33;25.42;;;18.50;;
11962;SDS011;62678;52.130;5.584;2022-08-16T14:08:00;21.48;;;15.98;;
11962;SDS011;62678;52.130;5.584;2022-08-16T14:10:26;21.15;;;18.10;;
11962;SDS011;62678;52.130;5.584;2022-08-16T14:12:53;18.67;;;16.58;;
11962;SDS011;62678;52.130;5.584;2022-08-16T14:15:21;20.48;;;18.33;;
11962;SDS011;62678;52.130;5.584;2022-08-16T14:17:49;19.42;;;17.35;;
11962;SDS011;62678;52.130;5.584;2022-08-16T14:20:16;21.70;;;19.20;;
11962;SDS011;62678;52.130;5.584;2022-08-16T14:22:43;20.98;;;16.42;;
11962;SDS011;62678;52.130;5.584;2022-08-16T14:25:11;22.38;;;20.10;;
11962;SDS011;62678;52.130;5.584;2022-08-16T14:27:39;24.08;;;18.55;;
11962;SDS011;62678;52.130;5.584;2022-08-16T14:30:06;21.77;;;19.48;;
11962;SDS011;62678;52.130;5.584;2022-08-16T14:32:37;20.38;;;18.20;;
11962;SDS011;62678;52.130;5.584;2022-08-16T14:35:06;24.10;;;18.73;;
11962;SDS011;62678;52.130;5.584;2022-08-16T14:37:35;20.95;;;17.30;;
11962;SDS011;62678;52.130;5.584;2022-08-16T14:40:03;17.42;;;15.45;;
11962;SDS011;62678;52.130;5.584;2022-08-16T14:42:30;17.17;;;15.50;;
11962;SDS011;62678;52.130;5.584;2022-08-16T14:44:57;17.77;;;14.05;;
11962;SDS011;62678;52.130;5.584;2022-08-16T14:47:24;15.65;;;13.82;;
11962;SDS011;62678;52.130;5.584;2022-08-16T14:49:52;16.00;;;14.20;;
11962;SDS011;62678;52.130;5.584;2022-08-16T14:52:20;20.60;;;15.52;;
11962;SDS011;62678;52.130;5.584;2022-08-16T14:54:48;16.70;;;13.23;;
11962;SDS011;62678;52.130;5.584;2022-08-16T14:57:17;10.90;;;9.77;;
11962;SDS011;62678;52.130;5.584;2022-08-16T14:59:44;10.70;;;9.60;;
11962;SDS011;62678;52.130;5.584;2022-08-16T15:02:12;10.95;;;9.77;;
11962;SDS011;62678;52.130;5.584;2022-08-16T15:04:41;12.13;;;10.38;;
11962;SDS011;62678;52.130;5.584;2022-08-16T15:07:09;11.02;;;9.88;;
11962;SDS011;62678;52.130;5.584;2022-08-16T15:09:37;13.60;;;10.80;;